createdAt,value
2022-10-17T00:01:07.043Z,62.97
2022-10-17T00:03:35.348Z,57.73
2022-10-17T00:06:08.216Z,63.17
2022-10-17T00:08:37.098Z,59.30
2022-10-17T00:11:08.150Z,61.47
2022-10-17T00:13:37.809Z,60.57
2022-10-17T00:16:06.450Z,62.67
2022-10-17T00:18:34.663Z,64.27
2022-10-17T00:21:02.867Z,61.00
2022-10-17T00:23:31.357Z,61.07
2022-10-17T00:26:00.710Z,59.17
2022-10-17T00:28:29.103Z,54.53
2022-10-17T00:30:59.706Z,54.07
2022-10-17T00:33:28.702Z,57.47
2022-10-17T00:36:05.334Z,54.60
2022-10-17T00:38:33.722Z,58.87
2022-10-17T00:41:02.222Z,60.17
2022-10-17T00:43:30.912Z,57.53
2022-10-17T00:46:00.595Z,57.80
2022-10-17T00:48:28.876Z,58.70
2022-10-17T00:50:57.171Z,57.43
2022-10-17T00:53:25.438Z,56.03
2022-10-17T00:55:55.125Z,56.80
2022-10-17T00:58:23.580Z,57.60
2022-10-17T01:00:51.865Z,53.93
2022-10-17T01:03:21.546Z,53.43
2022-10-17T01:05:49.754Z,54.27
2022-10-17T01:08:18.230Z,53.47
2022-10-17T01:10:54.949Z,50.07
2022-10-17T01:13:29.095Z,54.47
2022-10-17T01:16:05.972Z,54.87
2022-10-17T01:18:50.751Z,54.50
2022-10-17T01:21:40.692Z,55.83
2022-10-17T01:24:50.097Z,57.03
2022-10-17T01:27:38.852Z,54.77
2022-10-17T01:30:42.507Z,56.93
2022-10-17T01:33:18.969Z,54.13
2022-10-17T01:35:53.559Z,59.00
2022-10-17T01:38:26.621Z,61.97
2022-10-17T01:41:01.703Z,69.63
2022-10-17T01:43:37.823Z,64.07
2022-10-17T01:46:12.809Z,68.43
2022-10-17T01:48:46.120Z,80.27
2022-10-17T01:51:18.794Z,74.60
2022-10-17T01:53:52.955Z,79.43
2022-10-17T01:56:23.132Z,84.97
2022-10-17T01:59:14.731Z,91.80
2022-10-17T02:01:45.137Z,88.63
2022-10-17T02:04:16.484Z,90.50
2022-10-17T02:06:44.694Z,89.23
2022-10-17T02:09:22.083Z,91.83
2022-10-17T02:12:05.155Z,93.03
2022-10-17T02:14:43.134Z,87.73
2022-10-17T02:17:20.674Z,91.27
2022-10-17T02:19:58.886Z,93.90
2022-10-17T02:22:36.889Z,85.57
2022-10-17T02:25:12.052Z,90.67
2022-10-17T02:27:48.395Z,85.73
2022-10-17T02:30:28.561Z,89.00
2022-10-17T02:33:01.357Z,90.43
2022-10-17T02:35:39.458Z,97.60
2022-10-17T02:38:09.674Z,90.10
2022-10-17T02:40:38.528Z,89.30
2022-10-17T02:43:06.715Z,93.10
2022-10-17T02:45:37.710Z,90.03
2022-10-17T02:48:10.106Z,95.43
2022-10-17T02:50:50.199Z,95.13
2022-10-17T02:53:26.195Z,96.40
2022-10-17T02:55:59.872Z,98.17
2022-10-17T02:58:32.815Z,96.47
2022-10-17T03:01:02.264Z,101.67
2022-10-17T03:03:33.340Z,105.47
2022-10-17T03:06:02.982Z,106.37
2022-10-17T03:08:31.166Z,100.67
2022-10-17T03:10:59.392Z,103.30
2022-10-17T03:13:27.583Z,107.53
2022-10-17T03:15:56.949Z,97.30
2022-10-17T03:18:25.622Z,101.33
2022-10-17T03:20:53.829Z,97.30
2022-10-17T03:23:23.367Z,103.57
2022-10-17T03:25:51.549Z,107.70
2022-10-17T03:28:19.695Z,103.50
2022-10-17T03:30:48.074Z,103.30
2022-10-17T03:33:16.335Z,105.70
2022-10-17T03:35:44.557Z,103.87
2022-10-17T03:38:12.769Z,101.17
2022-10-17T03:40:42.401Z,96.10
2022-10-17T03:43:11.916Z,104.23
2022-10-17T03:45:40.125Z,100.77
2022-10-17T03:48:08.285Z,100.70
2022-10-17T03:50:36.452Z,100.70
2022-10-17T03:53:04.595Z,97.23
2022-10-17T03:55:32.902Z,101.37
2022-10-17T03:58:02.402Z,102.20
2022-10-17T04:00:30.765Z,100.90
2022-10-17T04:02:59.552Z,97.47
2022-10-17T04:05:27.748Z,96.37
2022-10-17T04:07:56.991Z,101.40
2022-10-17T04:10:26.054Z,101.77
2022-10-17T04:12:54.194Z,100.80
2022-10-17T04:15:23.759Z,100.00
2022-10-17T04:17:51.989Z,101.83
2022-10-17T04:20:20.204Z,95.93
2022-10-17T04:22:48.294Z,97.77
2022-10-17T04:25:16.617Z,99.83
2022-10-17T04:27:44.737Z,99.03
2022-10-17T04:30:13.102Z,101.10
2022-10-17T04:32:42.909Z,101.07
2022-10-17T04:35:11.130Z,101.93
2022-10-17T04:37:39.300Z,100.63
2022-10-17T04:40:09.031Z,106.13
2022-10-17T04:42:37.183Z,108.90
2022-10-17T04:45:06.047Z,107.63
2022-10-17T04:47:34.590Z,110.37
2022-10-17T04:50:04.304Z,96.63
2022-10-17T04:52:32.921Z,99.10
2022-10-17T04:55:01.104Z,104.23
2022-10-17T04:57:29.259Z,94.40
2022-10-17T04:59:57.997Z,98.37
2022-10-17T05:02:26.420Z,102.67
2022-10-17T05:04:54.718Z,106.87
2022-10-17T05:07:24.299Z,104.07
2022-10-17T05:09:52.494Z,108.97
2022-10-17T05:12:20.656Z,102.40
2022-10-17T05:14:48.781Z,104.90
2022-10-17T05:17:17.030Z,104.47
2022-10-17T05:19:45.162Z,100.20
2022-10-17T05:22:13.319Z,96.43
2022-10-17T05:24:42.912Z,97.57
2022-10-17T05:27:11.048Z,93.53
2022-10-17T05:29:39.801Z,97.97
2022-10-17T05:32:07.986Z,101.80
2022-10-17T05:34:36.123Z,96.70
2022-10-17T05:37:04.316Z,100.03
2022-10-17T05:39:32.492Z,98.50
2022-10-17T05:42:02.145Z,102.33
2022-10-17T05:44:30.296Z,97.40
2022-10-17T05:46:58.474Z,104.37
2022-10-17T05:49:33.827Z,108.87
2022-10-17T05:52:12.069Z,104.47
2022-10-17T05:54:40.240Z,105.03
2022-10-17T05:57:09.795Z,105.43
2022-10-17T05:59:38.036Z,103.30
2022-10-17T06:02:06.313Z,104.37
2022-10-17T06:04:34.739Z,104.50
2022-10-17T06:07:03.018Z,106.57
2022-10-17T06:09:31.283Z,95.50
2022-10-17T06:11:59.439Z,102.43
2022-10-17T06:14:29.347Z,101.53
2022-10-17T06:16:57.626Z,102.87
2022-10-17T06:19:26.100Z,100.90
2022-10-17T06:21:54.285Z,98.53
2022-10-17T06:24:22.441Z,102.17
2022-10-17T06:26:51.201Z,97.27
2022-10-17T06:29:19.453Z,90.53
2022-10-17T06:31:49.038Z,102.77
2022-10-17T06:34:17.363Z,92.33
2022-10-17T06:36:45.686Z,84.30
2022-10-17T06:39:14.099Z,76.07
2022-10-17T06:41:44.504Z,85.23
2022-10-17T06:44:13.327Z,78.07
2022-10-17T06:46:42.086Z,76.30
2022-10-17T06:49:12.461Z,77.03
2022-10-17T06:51:40.685Z,78.37
2022-10-17T06:54:08.995Z,73.73
2022-10-17T06:56:37.143Z,74.97
2022-10-17T06:59:05.388Z,85.43
2022-10-17T07:01:34.335Z,69.00
2022-10-17T07:04:02.526Z,78.03
2022-10-17T07:06:32.441Z,75.70
2022-10-17T07:09:02.682Z,78.10
2022-10-17T07:11:31.012Z,79.47
2022-10-17T07:13:59.271Z,75.60
2022-10-17T07:16:27.410Z,72.83
2022-10-17T07:18:56.582Z,67.07
2022-10-17T07:21:24.932Z,75.93
2022-10-17T07:23:54.430Z,77.07
2022-10-17T07:26:22.594Z,78.20
2022-10-17T07:28:54.110Z,73.87
2022-10-17T07:31:23.760Z,75.60
2022-10-17T07:33:52.507Z,73.47
2022-10-17T07:36:20.826Z,71.10
2022-10-17T07:38:48.975Z,72.90
2022-10-17T07:41:21.661Z,63.97
2022-10-17T07:43:50.585Z,63.73
2022-10-17T07:46:18.753Z,64.53
2022-10-17T07:48:46.918Z,69.60
2022-10-17T07:51:15.122Z,75.57
2022-10-17T07:53:46.534Z,70.47
2022-10-17T07:56:18.394Z,63.30
2022-10-17T07:58:48.272Z,65.17
2022-10-17T08:01:17.544Z,57.87
2022-10-17T08:03:46.958Z,59.50
2022-10-17T08:06:15.542Z,65.83
2022-10-17T08:08:44.668Z,65.90
2022-10-17T08:11:14.869Z,66.50
2022-10-17T08:13:44.465Z,72.40
2022-10-17T08:16:14.530Z,66.63
2022-10-17T08:18:44.385Z,63.80
2022-10-17T08:21:14.253Z,69.17
2022-10-17T08:23:43.091Z,63.80
2022-10-17T08:26:13.638Z,63.17
2022-10-17T08:28:43.563Z,77.57
2022-10-17T08:31:13.663Z,65.90
2022-10-17T08:33:42.532Z,63.80
2022-10-17T08:36:11.331Z,64.57
2022-10-17T08:38:43.048Z,64.43
2022-10-17T08:41:20.158Z,69.03
2022-10-17T08:44:02.349Z,67.63
2022-10-17T08:46:32.712Z,62.00
2022-10-17T08:49:04.520Z,58.03
2022-10-17T08:51:38.235Z,55.28
2022-10-17T08:54:13.714Z,60.08
2022-10-17T08:56:48.956Z,53.83
2022-10-17T08:59:29.571Z,61.35
2022-10-17T09:02:04.049Z,59.63
2022-10-17T09:05:01.809Z,63.97
2022-10-17T09:07:37.158Z,62.03
2022-10-17T09:10:15.592Z,58.17
2022-10-17T09:12:49.688Z,64.40
2022-10-17T09:15:37.201Z,56.95
2022-10-17T09:18:12.338Z,55.28
2022-10-17T09:20:44.376Z,52.97
2022-10-17T09:23:16.209Z,51.13
2022-10-17T09:25:46.444Z,51.70
2022-10-17T09:28:20.431Z,52.63
2022-10-17T09:30:57.377Z,50.28
2022-10-17T09:33:35.473Z,54.65
2022-10-17T09:36:20.569Z,55.08
2022-10-17T09:38:53.552Z,57.30
2022-10-17T09:41:44.374Z,57.30
2022-10-17T09:44:21.833Z,70.88
2022-10-17T09:47:07.519Z,65.45
2022-10-17T09:49:37.175Z,55.85
2022-10-17T09:52:11.207Z,53.40
2022-10-17T09:54:44.883Z,49.33
2022-10-17T09:57:15.240Z,44.15
2022-10-17T09:59:46.114Z,44.92
2022-10-17T10:02:25.179Z,41.00
2022-10-17T10:05:06.768Z,41.42
2022-10-17T10:07:37.693Z,42.55
2022-10-17T10:10:08.454Z,43.03
2022-10-17T10:12:38.374Z,40.10
2022-10-17T10:15:33.853Z,41.72
2022-10-17T10:18:03.582Z,42.67
2022-10-17T10:20:35.531Z,38.63
2022-10-17T10:23:15.058Z,40.58
2022-10-17T10:25:57.584Z,42.03
2022-10-17T10:28:28.437Z,40.83
2022-10-17T10:30:59.891Z,39.92
2022-10-17T10:33:31.017Z,41.33
2022-10-17T10:36:01.922Z,43.10
2022-10-17T10:38:31.345Z,42.92
2022-10-17T10:41:05.176Z,44.15
2022-10-17T10:43:37.776Z,42.78
2022-10-17T10:46:17.491Z,46.78
2022-10-17T10:48:54.771Z,41.05
2022-10-17T10:51:27.945Z,46.15
2022-10-17T10:54:03.397Z,41.25
2022-10-17T10:56:38.428Z,40.42
2022-10-17T10:59:15.178Z,38.72
2022-10-17T11:01:49.617Z,41.58
2022-10-17T11:04:31.657Z,41.53
2022-10-17T11:07:05.479Z,39.65
2022-10-17T11:09:46.258Z,45.97
2022-10-17T11:12:20.709Z,43.90
2022-10-17T11:14:54.838Z,43.40
2022-10-17T11:17:32.258Z,44.20
2022-10-17T11:20:11.372Z,42.95
2022-10-17T11:22:44.179Z,47.40
2022-10-17T11:25:24.044Z,45.63
2022-10-17T11:27:52.295Z,41.03
2022-10-17T11:30:22.281Z,42.92
2022-10-17T11:32:55.434Z,45.65
2022-10-17T11:35:27.730Z,46.30
2022-10-17T11:38:06.671Z,48.05
2022-10-17T11:40:37.374Z,55.67
2022-10-17T11:43:12.231Z,58.67
2022-10-17T11:45:43.814Z,63.65
2022-10-17T11:48:17.198Z,57.10
2022-10-17T11:53:49.113Z,56.53
2022-10-17T11:56:22.907Z,54.17
2022-10-17T11:58:57.623Z,62.78
2022-10-17T12:01:34.017Z,60.47
2022-10-17T12:04:14.115Z,54.92
2022-10-17T12:07:01.273Z,55.25
2022-10-17T12:09:40.877Z,56.67
2022-10-17T12:12:09.246Z,58.22
2022-10-17T12:14:47.104Z,59.90
2022-10-17T12:17:30.528Z,61.03
2022-10-17T12:20:27.438Z,54.40
2022-10-17T12:22:59.491Z,58.50
2022-10-17T12:25:31.542Z,59.22
2022-10-17T12:28:18.071Z,57.17
2022-10-17T12:30:58.365Z,56.33
2022-10-17T12:33:34.709Z,59.55
2022-10-17T12:36:46.150Z,59.75
2022-10-17T12:39:43.590Z,58.05
2022-10-17T12:42:44.951Z,60.85
2022-10-17T12:45:47.452Z,63.08
2022-10-17T12:48:30.716Z,59.78
2022-10-17T12:51:34.356Z,65.20
2022-10-17T12:54:00.258Z,63.50
2022-10-17T12:56:40.459Z,69.03
2022-10-17T12:59:14.967Z,64.60
2022-10-17T13:01:47.489Z,58.88
2022-10-17T13:04:16.419Z,62.17
2022-10-17T13:06:48.155Z,66.03
2022-10-17T13:09:27.172Z,64.20
2022-10-17T13:11:59.623Z,59.53
2022-10-17T13:14:28.782Z,62.63
2022-10-17T13:16:58.778Z,59.35
2022-10-17T13:19:30.488Z,65.38
2022-10-17T13:22:06.093Z,63.17
2022-10-17T13:24:37.241Z,55.75
2022-10-17T13:27:22.099Z,59.78
2022-10-17T13:29:50.292Z,55.78
2022-10-17T13:32:18.468Z,54.67
2022-10-17T13:34:46.670Z,56.05
2022-10-17T13:37:17.084Z,51.10
2022-10-17T13:40:00.351Z,52.28
2022-10-17T13:42:41.335Z,50.63
2022-10-17T13:45:19.502Z,53.17
2022-10-17T13:47:48.178Z,50.58
2022-10-17T13:50:43.236Z,50.80
2022-10-17T13:53:22.068Z,48.45
2022-10-17T13:56:09.506Z,52.30
2022-10-17T13:58:49.099Z,50.33
2022-10-17T14:01:18.168Z,52.50
2022-10-17T14:03:48.988Z,50.95
2022-10-17T14:06:21.031Z,50.70
2022-10-17T14:08:57.563Z,53.42
2022-10-17T14:11:30.774Z,49.38
2022-10-17T14:14:01.635Z,49.55
2022-10-17T14:16:37.658Z,49.13
2022-10-17T14:19:06.960Z,51.28
2022-10-17T14:21:43.964Z,47.67
2022-10-17T14:24:29.545Z,48.42
2022-10-17T14:27:00.007Z,47.92
2022-10-17T14:29:31.967Z,45.50
2022-10-17T14:32:03.295Z,48.08
2022-10-17T14:34:35.403Z,50.72
2022-10-17T14:37:09.242Z,46.35
2022-10-17T14:39:37.851Z,46.80
2022-10-17T14:42:06.392Z,46.00
2022-10-17T14:44:37.239Z,48.72
2022-10-17T14:47:42.375Z,50.03
2022-10-17T14:50:06.388Z,46.05
2022-10-17T14:52:35.759Z,48.78
2022-10-17T14:55:23.074Z,47.53
2022-10-17T14:57:51.658Z,47.60
2022-10-17T15:00:22.744Z,54.20
2022-10-17T15:02:52.483Z,46.88
2022-10-17T15:05:21.024Z,50.72
2022-10-17T15:07:49.139Z,51.28
2022-10-17T15:10:32.789Z,50.83
2022-10-17T15:13:27.627Z,52.60
2022-10-17T15:15:52.402Z,51.03
2022-10-17T15:18:21.083Z,50.53
2022-10-17T15:20:55.334Z,50.67
2022-10-17T15:23:32.971Z,48.45
2022-10-17T15:26:02.901Z,50.20
2022-10-17T15:28:31.164Z,52.53
2022-10-17T15:31:00.767Z,48.45
2022-10-17T15:33:28.913Z,51.75
2022-10-17T15:38:26.218Z,48.80
2022-10-17T15:40:54.365Z,51.20
2022-10-17T15:43:22.522Z,54.17
2022-10-17T15:45:50.828Z,49.20
2022-10-17T15:48:25.410Z,49.13
2022-10-17T15:50:53.582Z,52.15
2022-10-17T15:53:22.302Z,51.90
2022-10-17T15:55:51.100Z,46.25
2022-10-17T15:58:20.490Z,53.47
2022-10-17T16:00:50.034Z,55.45
2022-10-17T16:03:18.277Z,50.67
2022-10-17T16:05:47.985Z,50.58
2022-10-17T16:08:16.152Z,48.10
2022-10-17T16:10:44.328Z,50.97
2022-10-17T16:13:17.535Z,52.92
2022-10-17T16:15:45.707Z,53.25
2022-10-17T16:18:13.875Z,54.42
2022-10-17T16:20:42.504Z,51.35
2022-10-17T16:23:14.064Z,50.28
2022-10-17T16:25:42.277Z,53.80
2022-10-17T16:28:11.999Z,53.70
2022-10-17T16:30:45.055Z,50.38
2022-10-17T16:33:13.766Z,54.88
2022-10-17T16:35:41.916Z,56.63
2022-10-17T16:38:10.050Z,49.17
2022-10-17T16:40:40.669Z,51.83
2022-10-17T16:43:09.049Z,52.35
2022-10-17T16:45:37.699Z,56.13
2022-10-17T16:48:06.408Z,51.92
2022-10-17T16:50:35.757Z,55.00
2022-10-17T16:53:04.308Z,50.80
2022-10-17T16:55:32.511Z,51.92
2022-10-17T16:58:02.058Z,51.63
2022-10-17T17:00:30.548Z,53.00
2022-10-17T17:02:58.734Z,55.60
2022-10-17T17:05:26.912Z,53.38
2022-10-17T17:07:56.082Z,57.05
2022-10-17T17:10:24.253Z,52.90
2022-10-17T17:12:52.562Z,53.58
2022-10-17T17:15:22.118Z,54.00
2022-10-17T17:17:54.740Z,53.88
2022-10-17T17:20:23.623Z,51.30
2022-10-17T17:22:52.412Z,52.33
2022-10-17T17:25:20.685Z,55.28
2022-10-17T17:27:48.927Z,52.58
2022-10-17T17:30:17.261Z,55.97
2022-10-17T17:32:46.807Z,57.53
2022-10-17T17:35:14.954Z,54.75
2022-10-17T17:37:43.131Z,56.60
2022-10-17T17:40:12.349Z,55.40
2022-10-17T17:42:40.504Z,55.15
2022-10-17T17:45:09.773Z,50.25
2022-10-17T17:47:38.014Z,56.75
2022-10-17T17:50:08.606Z,55.63
2022-10-17T17:52:36.856Z,53.15
2022-10-17T17:55:05.372Z,57.78
2022-10-17T17:57:33.512Z,56.60
2022-10-17T18:00:01.715Z,56.72
2022-10-17T18:02:30.110Z,57.03
2022-10-17T18:04:58.438Z,53.95
2022-10-17T18:07:28.004Z,59.80
2022-10-17T18:09:57.043Z,58.28
2022-10-17T18:12:25.292Z,57.45
2022-10-17T18:14:53.587Z,58.95
2022-10-17T18:17:21.827Z,66.28
2022-10-17T18:19:50.095Z,70.35
2022-10-17T18:22:18.332Z,74.38
2022-10-17T18:24:47.941Z,65.88
2022-10-17T18:27:16.255Z,69.47
2022-10-17T18:29:46.471Z,67.75
2022-10-17T18:32:15.036Z,75.40
2022-10-17T18:34:43.549Z,75.68
2022-10-17T18:37:11.993Z,72.75
2022-10-17T18:39:40.211Z,73.30
2022-10-17T18:42:11.316Z,76.70
2022-10-17T18:44:39.466Z,73.47
2022-10-17T18:47:07.717Z,73.22
2022-10-17T18:49:36.570Z,73.35
2022-10-17T18:52:04.836Z,75.65
2022-10-17T18:54:33.626Z,73.70
2022-10-17T18:57:02.395Z,79.97
2022-10-17T18:59:32.088Z,79.07
2022-10-17T19:02:00.583Z,78.22
2022-10-17T19:04:28.992Z,80.63
2022-10-17T19:06:57.161Z,76.30
2022-10-17T19:09:25.327Z,78.18
2022-10-17T19:11:53.557Z,76.65
2022-10-17T19:14:21.768Z,81.97
2022-10-17T19:16:52.027Z,86.72
2022-10-17T19:19:22.831Z,78.47
2022-10-17T19:21:51.766Z,80.63
2022-10-17T19:24:22.364Z,81.50
2022-10-17T19:26:53.468Z,74.75
2022-10-17T19:29:22.802Z,71.80
2022-10-17T19:31:52.934Z,70.13
2022-10-17T19:34:21.161Z,80.63
2022-10-17T19:36:49.906Z,74.90
2022-10-17T19:39:20.799Z,72.22
2022-10-17T19:41:49.823Z,69.07
2022-10-17T19:44:18.498Z,73.35
2022-10-17T19:46:48.956Z,77.07
2022-10-17T19:49:19.198Z,72.50
2022-10-17T19:51:47.410Z,75.32
2022-10-17T19:54:18.237Z,69.63
2022-10-17T19:56:46.474Z,71.53
2022-10-17T19:59:16.240Z,73.82
2022-10-17T20:01:45.088Z,76.22
2022-10-17T20:04:14.142Z,75.20
2022-10-17T20:06:44.053Z,74.80
2022-10-17T20:09:16.613Z,72.25
2022-10-17T20:11:45.838Z,73.53
2022-10-17T20:14:14.051Z,76.05
2022-10-17T20:16:42.193Z,75.40
2022-10-17T20:19:12.826Z,78.10
2022-10-17T20:21:41.056Z,74.97
2022-10-17T20:24:14.556Z,75.68
2022-10-17T20:26:43.579Z,75.63
2022-10-17T20:29:14.668Z,78.63
2022-10-17T20:31:44.770Z,77.05
2022-10-17T20:34:15.249Z,79.65
2022-10-17T20:36:43.524Z,80.43
2022-10-17T20:39:14.854Z,80.43
2022-10-17T20:41:43.388Z,76.13
2022-10-17T20:44:12.581Z,79.78
2022-10-17T20:46:48.732Z,78.53
2022-10-17T20:49:25.831Z,73.38
2022-10-17T20:51:54.058Z,79.20
2022-10-17T20:54:23.620Z,78.40
2022-10-17T20:56:51.928Z,71.13
2022-10-17T20:59:20.502Z,73.88
2022-10-17T21:01:49.368Z,75.63
2022-10-17T21:07:06.658Z,72.90
2022-10-17T21:09:36.211Z,73.80
2022-10-17T21:12:05.405Z,75.63
2022-10-17T21:14:36.414Z,71.85
2022-10-17T21:17:05.621Z,72.22
2022-10-17T21:19:34.376Z,74.03
2022-10-17T21:22:02.740Z,74.45
2022-10-17T21:24:31.662Z,71.53
2022-10-17T21:27:01.246Z,70.75
2022-10-17T21:29:29.553Z,64.28
2022-10-17T21:31:57.690Z,63.10
2022-10-17T21:34:26.322Z,61.13
2022-10-17T21:36:54.877Z,61.63
2022-10-17T21:39:24.777Z,52.78
2022-10-17T21:41:53.798Z,44.83
2022-10-17T21:44:24.621Z,44.05
2022-10-17T21:46:53.938Z,41.47
2022-10-17T21:49:25.413Z,45.00
2022-10-17T21:51:53.979Z,73.57
2022-10-17T21:54:23.997Z,67.93
2022-10-17T21:56:53.104Z,73.05
2022-10-17T21:59:22.632Z,73.05
2022-10-17T22:01:50.970Z,78.00
2022-10-17T22:04:20.589Z,86.47
2022-10-17T22:06:52.359Z,88.75
2022-10-17T22:09:22.924Z,101.05
2022-10-17T22:11:53.825Z,97.18
2022-10-17T22:14:24.915Z,105.72
2022-10-17T22:16:53.072Z,95.55
2022-10-17T22:19:27.248Z,118.25
2022-10-17T22:21:56.092Z,107.88
2022-10-17T22:24:24.529Z,107.78
2022-10-17T22:26:52.794Z,109.33
2022-10-17T22:29:22.379Z,112.15
2022-10-17T22:31:50.596Z,118.35
2022-10-17T22:34:19.771Z,124.13
2022-10-17T22:36:48.961Z,119.10
2022-10-17T22:39:17.244Z,115.75
2022-10-17T22:41:45.585Z,117.53
2022-10-17T22:44:13.808Z,119.05
2022-10-17T22:46:43.446Z,122.75
2022-10-17T22:49:11.792Z,119.65
2022-10-17T22:51:40.027Z,146.98
2022-10-17T22:54:08.672Z,132.23
2022-10-17T22:56:36.879Z,148.63
2022-10-17T22:59:05.429Z,137.77
2022-10-17T23:01:34.058Z,149.35
2022-10-17T23:04:03.676Z,136.00
2022-10-17T23:06:31.835Z,139.13
2022-10-17T23:09:00.006Z,150.40
2022-10-17T23:11:28.323Z,111.18
2022-10-17T23:13:56.581Z,132.60
2022-10-17T23:16:24.755Z,123.35
2022-10-17T23:18:52.943Z,151.43
2022-10-17T23:21:22.622Z,139.32
2022-10-17T23:23:50.768Z,123.35
2022-10-17T23:26:18.933Z,138.15
2022-10-17T23:28:47.176Z,117.20
2022-10-17T23:31:19.360Z,132.95
2022-10-17T23:33:49.107Z,140.00
2022-10-17T23:36:19.075Z,143.05
2022-10-17T23:38:51.789Z,121.65
2022-10-17T23:41:37.303Z,165.52
2022-10-17T23:44:05.911Z,132.90
2022-10-17T23:46:34.085Z,109.20
2022-10-17T23:49:02.247Z,103.45
2022-10-17T23:51:30.993Z,101.88
2022-10-17T23:54:00.554Z,99.20
2022-10-17T23:56:28.708Z,101.55
2022-10-17T23:58:56.911Z,93.00
